Time;durP1;ratioP1;P1;durP2;ratioP2;P2;SDS_P1;SDS_P2;PMS_P1;PMS_P2;Temp;Humidity;BMP_temperature;BMP_pressure;BME280_temperature;BME280_humidity;BME280_pressure;Samples;Min_cycle;Max_cycle;Signal;HPM_P1;HPM_P2
2023/05/10 00:02:26;;;;;;;6.00;5.70;;;13.40;99.90;;;;;;5142277;27;20460;-67
2023/05/10 00:04:53;;;;;;;4.23;4.13;;;13.40;99.90;;;;;;5144399;27;20458;-68
2023/05/10 00:07:20;;;;;;;4.70;4.50;;;13.30;99.90;;;;;;5138132;27;20514;-68
2023/05/10 00:09:47;;;;;;;6.27;5.63;;;13.40;99.90;;;;;;5141145;27;20517;-69
2023/05/10 00:12:15;;;;;;;5.80;5.60;;;13.30;99.90;;;;;;5144673;27;20461;-68
2023/05/10 00:14:42;;;;;;;5.87;5.37;;;13.20;99.90;;;;;;5141836;27;20460;-67
2023/05/10 00:17:09;;;;;;;5.40;5.20;;;13.10;99.90;;;;;;5148117;27;20491;-69
2023/05/10 00:19:36;;;;;;;5.90;5.70;;;13.10;99.90;;;;;;5140495;27;20467;-70
2023/05/10 00:22:04;;;;;;;4.47;4.37;;;13.00;99.90;;;;;;5147939;27;20452;-70
2023/05/10 00:24:30;;;;;;;5.77;5.47;;;13.00;99.90;;;;;;5138185;27;20492;-69
2023/05/10 00:26:57;;;;;;;6.33;5.93;;;13.00;99.90;;;;;;5148297;27;20572;-68
2023/05/10 00:29:27;;;;;;;6.57;6.07;;;13.00;99.90;;;;;;5138356;27;20460;-70
2023/05/10 00:31:54;;;;;;;7.43;4.70;;;12.90;99.90;;;;;;5144825;27;20907;-69
2023/05/10 00:34:21;;;;;;;5.10;4.80;;;13.00;99.90;;;;;;5147880;27;20447;-68
2023/05/10 00:36:49;;;;;;;4.23;4.13;;;12.90;99.90;;;;;;5144783;27;20543;-70
2023/05/10 00:39:17;;;;;;;4.30;4.10;;;12.90;99.90;;;;;;5139611;27;20459;-69
2023/05/10 00:41:45;;;;;;;3.70;3.60;;;12.90;99.90;;;;;;5139562;27;20487;-69
2023/05/10 00:44:11;;;;;;;5.97;5.67;;;13.00;99.90;;;;;;5149097;27;20455;-68
2023/05/10 00:46:40;;;;;;;4.80;4.60;;;13.00;99.90;;;;;;5140254;27;20491;-69
2023/05/10 00:49:08;;;;;;;5.70;5.50;;;13.00;99.90;;;;;;5143028;27;20941;-68
2023/05/10 00:51:36;;;;;;;5.73;5.53;;;13.00;99.90;;;;;;5142163;27;20523;-69
2023/05/10 00:54:05;;;;;;;5.50;5.30;;;13.00;99.90;;;;;;5143100;27;20448;-70
2023/05/10 00:56:32;;;;;;;5.60;5.40;;;13.00;99.90;;;;;;5144209;27;20756;-69
2023/05/10 00:58:58;;;;;;;5.50;5.30;;;13.10;99.90;;;;;;5132703;27;20509;-70
2023/05/10 01:01:26;;;;;;;6.00;5.60;;;13.10;99.90;;;;;;5140743;27;20456;-69
2023/05/10 01:03:56;;;;;;;4.60;4.50;;;13.10;99.90;;;;;;5149155;27;20995;-70
2023/05/10 01:06:23;;;;;;;4.60;4.50;;;13.10;99.90;;;;;;5131579;27;20492;-69
2023/05/10 01:08:51;;;;;;;4.83;4.57;;;13.10;99.90;;;;;;5140057;27;20459;-69
2023/05/10 01:11:18;;;;;;;4.93;4.73;;;13.10;99.90;;;;;;5143410;27;20804;-69
2023/05/10 01:13:57;;;;;;;4.60;4.50;;;13.20;99.90;;;;;;5149355;27;20547;-69
2023/05/10 01:16:25;;;;;;;4.03;3.93;;;13.20;99.90;;;;;;5143137;27;20483;-70
2023/05/10 01:18:54;;;;;;;4.20;4.10;;;13.20;99.90;;;;;;5138285;27;20517;-70
2023/05/10 01:21:29;;;;;;;4.80;4.70;;;13.20;99.90;;;;;;5144550;27;20459;-70
2023/05/10 01:24:15;;;;;;;4.50;4.40;;;13.20;99.90;;;;;;5144711;27;20451;-70
2023/05/10 01:27:14;;;;;;;4.53;4.43;;;13.20;99.90;;;;;;5144019;27;21000;-69
2023/05/10 01:30:07;;;;;;;4.57;4.47;;;13.30;99.90;;;;;;5136937;27;21294;-70
2023/05/10 01:32:44;;;;;;;5.60;5.40;;;13.30;99.90;;;;;;5144181;27;20826;-70
2023/05/10 01:35:17;;;;;;;11.97;9.00;;;13.20;99.90;;;;;;5141115;27;20649;-69
2023/05/10 01:37:51;;;;;;;4.97;4.83;;;13.20;99.90;;;;;;5150948;27;20984;-69
2023/05/10 01:40:23;;;;;;;5.50;5.30;;;13.20;99.90;;;;;;5141836;27;21035;-70
2023/05/10 01:42:55;;;;;;;5.60;5.40;;;13.20;99.90;;;;;;5145266;27;20471;-70
2023/05/10 01:45:32;;;;;;;4.80;4.70;;;13.20;99.90;;;;;;5135945;27;20462;-69
2023/05/10 01:48:07;;;;;;;5.37;5.17;;;13.20;99.90;;;;;;5146314;27;20455;-70
2023/05/10 01:50:37;;;;;;;4.90;4.80;;;13.20;99.90;;;;;;5139673;27;20511;-69
2023/05/10 01:53:07;;;;;;;5.67;5.47;;;13.10;99.90;;;;;;5139053;27;20479;-69
2023/05/10 01:55:37;;;;;;;4.73;4.63;;;13.10;99.90;;;;;;5141192;27;20490;-69
2023/05/10 01:58:07;;;;;;;5.17;5.03;;;13.10;99.90;;;;;;5144176;27;20500;-70
2023/05/10 02:00:35;;;;;;;5.03;4.93;;;13.10;99.90;;;;;;5139137;27;20453;-69
2023/05/10 02:03:08;;;;;;;4.90;4.80;;;13.20;99.90;;;;;;5150687;27;20459;-70
2023/05/10 02:05:37;;;;;;;5.50;5.30;;;13.10;99.90;;;;;;5138880;27;20471;-69
2023/05/10 02:08:07;;;;;;;4.93;4.83;;;13.10;99.90;;;;;;5150883;27;20909;-69
2023/05/10 02:10:36;;;;;;;5.07;4.97;;;13.10;99.90;;;;;;5137099;27;21033;-69
2023/05/10 02:13:04;;;;;;;5.07;4.97;;;13.20;99.90;;;;;;5150983;27;20488;-69
2023/05/10 02:15:33;;;;;;;5.53;5.33;;;13.20;99.90;;;;;;5146067;27;20456;-69
2023/05/10 02:18:03;;;;;;;6.17;5.97;;;13.20;99.90;;;;;;5135460;27;20482;-69
2023/05/10 02:20:33;;;;;;;5.93;5.73;;;13.20;99.90;;;;;;5148267;27;20464;-69
2023/05/10 02:23:03;;;;;;;5.53;5.33;;;13.20;99.90;;;;;;5149327;27;20451;-70
2023/05/10 02:25:31;;;;;;;5.73;5.53;;;13.30;99.90;;;;;;5137684;27;20463;-69
2023/05/10 02:28:01;;;;;;;5.90;5.70;;;13.30;99.90;;;;;;5141239;27;20499;-69
2023/05/10 02:30:29;;;;;;;6.47;6.20;;;13.20;99.90;;;;;;5142281;27;20458;-69
2023/05/10 02:32:57;;;;;;;5.50;5.30;;;13.20;99.90;;;;;;5139043;27;20489;-69
2023/05/10 02:35:26;;;;;;;5.90;5.70;;;13.20;99.90;;;;;;5143557;27;20459;-69
2023/05/10 02:37:55;;;;;;;6.03;5.83;;;13.20;99.90;;;;;;5137040;27;20467;-69
2023/05/10 02:40:23;;;;;;;5.40;5.20;;;13.20;99.90;;;;;;5142698;27;20455;-70
2023/05/10 02:42:53;;;;;;;6.43;6.07;;;13.20;99.90;;;;;;5144775;27;20459;-69
2023/05/10 02:45:24;;;;;;;6.93;6.40;;;13.30;99.90;;;;;;5140522;27;20483;-69
2023/05/10 02:47:51;;;;;;;5.60;5.40;;;13.30;99.90;;;;;;5131987;27;21100;-69
2023/05/10 02:50:19;;;;;;;7.37;6.97;;;13.20;99.90;;;;;;5143717;27;20459;-70
2023/05/10 02:52:51;;;;;;;6.80;6.40;;;13.20;99.90;;;;;;5145708;27;20962;-69
2023/05/10 02:55:23;;;;;;;5.97;5.77;;;13.30;99.90;;;;;;5147811;27;20545;-69
2023/05/10 02:57:53;;;;;;;8.40;8.00;;;13.30;99.90;;;;;;5139537;27;20464;-69
2023/05/10 03:00:21;;;;;;;7.03;6.73;;;13.40;99.90;;;;;;5139000;27;20458;-68
2023/05/10 03:02:48;;;;;;;5.60;5.40;;;13.40;99.90;;;;;;5143621;27;20462;-70
2023/05/10 03:05:14;;;;;;;5.40;5.20;;;13.40;99.90;;;;;;5138854;27;20868;-69
2023/05/10 03:07:42;;;;;;;7.73;6.67;;;13.40;99.90;;;;;;5137533;27;20480;-70
2023/05/10 03:10:10;;;;;;;4.53;4.43;;;13.40;99.90;;;;;;5149364;27;20461;-69
2023/05/10 03:12:53;;;;;;;6.47;6.03;;;13.40;99.90;;;;;;5137221;27;20460;-70
2023/05/10 03:15:29;;;;;;;5.87;5.67;;;13.40;99.90;;;;;;5142113;27;20538;-69
2023/05/10 03:18:01;;;;;;;7.63;7.03;;;13.40;99.90;;;;;;5136162;27;20487;-70
2023/05/10 03:20:36;;;;;;;6.03;5.83;;;13.40;99.90;;;;;;5148493;27;20463;-70
2023/05/10 03:23:08;;;;;;;6.30;5.90;;;13.40;99.90;;;;;;5135618;27;20511;-69
2023/05/10 03:25:36;;;;;;;5.93;5.53;;;13.40;99.90;;;;;;5141945;27;20468;-70
2023/05/10 03:28:06;;;;;;;5.83;5.53;;;13.40;99.90;;;;;;5143280;27;20835;-69
2023/05/10 03:30:34;;;;;;;8.70;5.90;;;13.40;99.90;;;;;;5150127;27;20466;-69
2023/05/10 03:33:06;;;;;;;4.70;4.50;;;13.40;99.90;;;;;;5147825;27;20447;-69
2023/05/10 03:35:33;;;;;;;5.10;4.90;;;13.40;99.90;;;;;;5152830;27;20542;-69
2023/05/10 03:38:00;;;;;;;7.43;6.67;;;13.40;99.90;;;;;;5140192;27;20459;-70
2023/05/10 03:40:31;;;;;;;16.97;6.80;;;13.40;99.90;;;;;;5139803;27;20459;-69
2023/05/10 03:42:58;;;;;;;11.40;10.30;;;13.40;99.90;;;;;;5138702;27;20559;-70
2023/05/10 03:45:27;;;;;;;8.73;6.47;;;13.40;99.90;;;;;;5151929;27;20452;-68
2023/05/10 03:47:54;;;;;;;8.87;8.00;;;13.40;99.90;;;;;;5143687;27;20479;-70
2023/05/10 03:50:21;;;;;;;5.57;5.27;;;13.40;99.90;;;;;;5141473;27;20501;-69
2023/05/10 03:52:49;;;;;;;4.60;4.37;;;13.40;99.90;;;;;;5146516;27;20462;-69
2023/05/10 03:55:17;;;;;;;5.43;5.17;;;13.30;99.90;;;;;;5141435;27;20511;-69
2023/05/10 03:57:44;;;;;;;6.40;6.00;;;13.30;99.90;;;;;;5153086;27;20466;-69
2023/05/10 04:00:12;;;;;;;8.17;6.83;;;13.30;99.90;;;;;;5138770;27;20558;-69
2023/05/10 04:02:40;;;;;;;4.23;4.13;;;13.30;99.90;;;;;;5145703;27;20500;-69
2023/05/10 04:05:08;;;;;;;7.80;7.13;;;13.30;99.90;;;;;;5143098;27;20455;-69
2023/05/10 04:07:36;;;;;;;6.77;6.30;;;13.20;99.90;;;;;;5141730;27;20476;-68
2023/05/10 04:10:04;;;;;;;5.87;5.47;;;13.20;99.90;;;;;;5146779;27;20459;-70
2023/05/10 04:12:31;;;;;;;5.00;4.70;;;13.20;99.90;;;;;;5146541;27;20458;-68
2023/05/10 04:14:58;;;;;;;7.00;6.20;;;13.00;99.90;;;;;;5151637;27;20459;-69
2023/05/10 04:17:26;;;;;;;6.90;5.53;;;13.00;99.90;;;;;;5140627;27;20884;-69
2023/05/10 04:19:55;;;;;;;5.20;4.90;;;13.10;99.90;;;;;;5141236;27;20455;-69
2023/05/10 04:22:22;;;;;;;5.30;5.00;;;13.00;99.90;;;;;;5139484;27;20460;-68
2023/05/10 04:24:48;;;;;;;4.67;4.43;;;13.00;99.90;;;;;;5150277;27;20458;-69
2023/05/10 04:27:15;;;;;;;12.90;8.03;;;13.00;99.90;;;;;;5138316;27;20551;-69
2023/05/10 04:29:42;;;;;;;10.37;8.73;;;13.00;99.90;;;;;;5139380;27;20452;-70
2023/05/10 04:32:10;;;;;;;6.83;6.17;;;13.00;99.90;;;;;;5143856;27;20463;-69
2023/05/10 04:34:38;;;;;;;5.30;5.00;;;13.00;99.90;;;;;;5145443;27;20477;-69
2023/05/10 04:37:07;;;;;;;5.20;4.90;;;13.00;99.90;;;;;;5132564;27;21026;-69
2023/05/10 04:39:34;;;;;;;9.60;5.13;;;13.00;99.90;;;;;;5134806;27;20460;-68
2023/05/10 04:42:02;;;;;;;7.43;6.83;;;13.00;99.90;;;;;;5142589;27;20839;-68
2023/05/10 04:44:29;;;;;;;6.30;5.80;;;13.00;99.90;;;;;;5137216;27;20509;-67
2023/05/10 04:46:57;;;;;;;5.17;4.90;;;13.10;99.90;;;;;;5139049;27;20475;-67
2023/05/10 04:49:24;;;;;;;6.20;5.90;;;13.10;99.90;;;;;;5148094;27;20491;-67
2023/05/10 04:51:51;;;;;;;6.77;6.17;;;13.10;99.90;;;;;;5137626;27;20479;-67
2023/05/10 04:54:19;;;;;;;4.10;4.00;;;13.20;99.90;;;;;;5149977;27;20464;-67
2023/05/10 04:56:46;;;;;;;4.20;4.10;;;13.10;99.90;;;;;;5142622;27;20468;-68
2023/05/10 04:59:13;;;;;;;6.03;5.73;;;13.20;99.90;;;;;;5145200;27;20456;-68
2023/05/10 05:01:40;;;;;;;5.00;4.80;;;13.20;99.90;;;;;;5131800;27;20845;-68
2023/05/10 05:04:07;;;;;;;3.90;3.80;;;13.20;99.90;;;;;;5136492;27;20940;-68
2023/05/10 05:06:34;;;;;;;8.80;6.60;;;13.30;99.90;;;;;;5133641;27;20461;-67
2023/05/10 05:09:01;;;;;;;5.00;4.80;;;13.30;99.90;;;;;;5144634;27;20547;-67
2023/05/10 05:11:30;;;;;;;13.60;9.07;;;13.30;99.90;;;;;;5146324;27;21028;-69
2023/05/10 05:13:58;;;;;;;10.33;9.13;;;13.30;99.90;;;;;;5131892;27;20556;-69
2023/05/10 05:16:26;;;;;;;7.00;6.50;;;13.30;99.90;;;;;;5142610;27;20843;-69
2023/05/10 05:18:53;;;;;;;5.83;5.50;;;13.20;99.90;;;;;;5137894;27;20464;-68
2023/05/10 05:21:21;;;;;;;3.93;3.83;;;13.30;99.90;;;;;;5146695;27;20483;-68
2023/05/10 05:23:48;;;;;;;7.13;6.73;;;13.20;99.90;;;;;;5143337;27;20547;-67
2023/05/10 05:26:15;;;;;;;10.10;7.33;;;13.20;99.90;;;;;;5137550;27;20464;-68
2023/05/10 05:28:44;;;;;;;5.77;5.23;;;13.20;99.90;;;;;;5139424;27;21399;-67
2023/05/10 05:31:11;;;;;;;5.03;4.70;;;13.10;99.90;;;;;;5140553;27;20848;-68
2023/05/10 05:33:38;;;;;;;6.57;6.13;;;13.20;99.90;;;;;;5140466;27;20547;-68
2023/05/10 05:36:06;;;;;;;4.00;3.90;;;13.20;99.90;;;;;;5131951;27;20444;-68
2023/05/10 05:38:35;;;;;;;11.03;4.97;;;13.20;99.90;;;;;;5140502;27;20452;-69
2023/05/10 05:41:02;;;;;;;3.77;3.67;;;13.10;99.90;;;;;;5139275;27;20467;-69
2023/05/10 05:43:29;;;;;;;7.83;7.33;;;13.10;99.90;;;;;;5144578;27;20451;-68
2023/05/10 05:45:58;;;;;;;9.90;6.70;;;13.10;99.90;;;;;;5139980;27;20927;-68
2023/05/10 05:48:25;;;;;;;8.10;7.50;;;13.10;99.90;;;;;;5137595;27;20499;-67
2023/05/10 05:50:56;;;;;;;7.97;7.50;;;13.00;99.90;;;;;;5133715;27;21000;-67
2023/05/10 05:53:23;;;;;;;9.00;8.40;;;12.90;99.90;;;;;;5133692;27;21030;-67
2023/05/10 05:55:54;;;;;;;9.80;8.30;;;13.00;99.90;;;;;;5140703;27;20460;-68
2023/05/10 05:58:20;;;;;;;6.63;6.37;;;13.10;99.90;;;;;;5136154;27;20463;-68
2023/05/10 06:00:48;;;;;;;6.57;6.17;;;13.10;99.90;;;;;;5135366;27;21231;-67
2023/05/10 06:03:17;;;;;;;6.67;6.37;;;13.10;99.90;;;;;;5142592;27;20460;-68
2023/05/10 06:05:45;;;;;;;7.57;7.17;;;13.10;99.90;;;;;;5136889;27;20468;-68
2023/05/10 06:08:12;;;;;;;5.80;5.50;;;13.20;99.90;;;;;;5146087;27;20931;-68
2023/05/10 06:10:38;;;;;;;5.33;5.13;;;13.20;99.90;;;;;;5142115;27;20957;-67
2023/05/10 06:13:07;;;;;;;7.97;7.40;;;13.30;99.90;;;;;;5139726;27;21179;-67
2023/05/10 06:15:34;;;;;;;5.37;5.17;;;13.40;99.90;;;;;;5137674;27;20526;-69
2023/05/10 06:18:01;;;;;;;6.37;6.07;;;13.30;99.90;;;;;;5131920;27;20699;-68
2023/05/10 06:20:31;;;;;;;9.23;8.43;;;13.40;99.90;;;;;;5143810;27;20524;-67
2023/05/10 06:22:59;;;;;;;4.90;4.70;;;13.50;99.90;;;;;;5145418;27;20466;-67
2023/05/10 06:25:25;;;;;;;8.53;7.70;;;13.50;99.90;;;;;;5143012;27;20980;-68
2023/05/10 06:27:57;;;;;;;5.33;5.00;;;13.50;99.90;;;;;;5142297;27;20810;-67
2023/05/10 06:30:27;;;;;;;7.40;5.70;;;13.60;99.90;;;;;;5141067;27;20541;-67
2023/05/10 06:32:54;;;;;;;6.53;5.90;;;13.60;99.90;;;;;;5134064;27;20816;-67
2023/05/10 06:35:22;;;;;;;5.47;4.97;;;13.70;99.90;;;;;;5136820;27;20546;-67
2023/05/10 06:37:51;;;;;;;4.90;4.70;;;13.60;99.90;;;;;;5127389;27;20475;-68
2023/05/10 06:40:19;;;;;;;7.20;6.70;;;13.70;99.90;;;;;;5141970;27;20542;-68
2023/05/10 06:42:46;;;;;;;5.03;4.73;;;13.60;99.90;;;;;;5138517;27;20455;-68
2023/05/10 06:45:13;;;;;;;15.93;6.30;;;13.60;99.90;;;;;;5144001;27;21339;-68
2023/05/10 06:47:40;;;;;;;4.57;4.40;;;13.60;99.90;;;;;;5131323;27;20482;-67
2023/05/10 06:50:07;;;;;;;8.77;7.30;;;13.60;99.90;;;;;;5137449;27;20832;-68
2023/05/10 06:52:34;;;;;;;7.53;7.00;;;13.70;99.90;;;;;;5135743;27;21043;-66
2023/05/10 06:55:05;;;;;;;7.07;6.77;;;13.60;99.90;;;;;;5145673;27;20464;-67
2023/05/10 06:57:32;;;;;;;5.80;5.60;;;13.60;99.90;;;;;;5134052;27;20973;-68
2023/05/10 06:59:58;;;;;;;8.00;7.53;;;13.60;99.90;;;;;;5125559;27;20552;-68
2023/05/10 07:02:25;;;;;;;7.23;6.73;;;13.50;99.90;;;;;;5135966;27;21021;-67
2023/05/10 07:04:53;;;;;;;10.63;9.47;;;13.50;99.90;;;;;;5139332;27;20542;-67
2023/05/10 07:07:20;;;;;;;9.40;8.60;;;13.60;99.90;;;;;;5136634;27;20550;-67
2023/05/10 07:09:49;;;;;;;7.17;6.87;;;13.60;99.90;;;;;;5148958;27;20497;-68
2023/05/10 07:12:17;;;;;;;7.10;6.70;;;13.60;99.90;;;;;;5146766;27;20834;-68
2023/05/10 07:14:44;;;;;;;11.27;10.20;;;13.60;99.90;;;;;;5142701;27;20503;-68
2023/05/10 07:17:11;;;;;;;4.23;4.13;;;13.80;99.90;;;;;;5135352;27;20537;-68
2023/05/10 07:19:38;;;;;;;4.80;4.60;;;14.00;99.90;;;;;;5148996;27;20459;-69
2023/05/10 07:22:05;;;;;;;7.20;6.70;;;14.20;99.90;;;;;;5144831;27;20460;-68
2023/05/10 07:24:33;;;;;;;7.17;6.00;;;14.30;99.90;;;;;;5148257;27;20461;-68
2023/05/10 07:27:01;;;;;;;6.73;6.23;;;14.30;99.90;;;;;;5140787;27;20463;-67
2023/05/10 07:29:29;;;;;;;5.90;5.30;;;14.50;99.90;;;;;;5143681;27;20491;-69
2023/05/10 07:31:56;;;;;;;3.37;3.20;;;14.60;99.90;;;;;;5142354;27;20466;-69
2023/05/10 07:34:23;;;;;;;4.50;2.53;;;14.70;99.90;;;;;;5132700;27;20458;-69
2023/05/10 07:36:51;;;;;;;14.20;7.00;;;15.00;99.90;;;;;;5132703;27;20834;-69
2023/05/10 07:39:17;;;;;;;13.17;6.53;;;15.20;99.90;;;;;;5137469;27;20950;-69
2023/05/10 07:41:44;;;;;;;12.83;8.40;;;15.70;99.90;;;;;;5138860;27;20462;-69
2023/05/10 07:44:11;;;;;;;9.30;4.90;;;16.10;99.90;;;;;;5140935;27;21000;-69
2023/05/10 07:46:40;;;;;;;6.90;6.10;;;16.10;99.90;;;;;;5140888;27;20463;-69
2023/05/10 07:49:06;;;;;;;13.43;7.43;;;16.00;99.90;;;;;;5130651;27;21005;-69
2023/05/10 07:51:34;;;;;;;23.37;11.40;;;16.20;99.90;;;;;;5137615;27;20867;-69
2023/05/10 07:54:02;;;;;;;7.00;6.30;;;16.10;99.90;;;;;;5142132;27;20467;-68
2023/05/10 07:56:31;;;;;;;5.33;4.93;;;16.00;99.90;;;;;;5141168;27;20448;-69
2023/05/10 07:59:00;;;;;;;11.70;9.80;;;16.10;99.90;;;;;;5144052;27;20459;-68
2023/05/10 08:01:27;;;;;;;13.27;9.23;;;16.10;99.90;;;;;;5131379;27;20876;-69
2023/05/10 08:03:55;;;;;;;7.00;6.47;;;16.10;99.90;;;;;;5133646;27;20466;-69
2023/05/10 08:06:22;;;;;;;12.00;8.23;;;16.00;99.90;;;;;;5126994;27;20460;-69
2023/05/10 08:08:50;;;;;;;12.07;9.57;;;16.00;99.90;;;;;;5139561;27;20524;-69
2023/05/10 08:11:17;;;;;;;8.10;7.47;;;16.00;99.90;;;;;;5134787;27;20448;-68
2023/05/10 08:13:44;;;;;;;8.43;7.80;;;16.00;99.90;;;;;;5137608;27;20462;-69
2023/05/10 08:16:11;;;;;;;12.60;11.53;;;15.90;99.90;;;;;;5133322;27;21062;-69
2023/05/10 08:18:38;;;;;;;6.57;6.20;;;16.00;99.90;;;;;;5135296;27;20502;-68
2023/05/10 08:21:07;;;;;;;14.03;11.30;;;16.00;99.90;;;;;;5136030;27;20989;-69
2023/05/10 08:23:33;;;;;;;13.23;11.87;;;15.90;99.90;;;;;;5135393;27;20611;-68
2023/05/10 08:26:01;;;;;;;12.00;10.60;;;15.90;99.90;;;;;;5138927;27;20456;-70
2023/05/10 08:28:29;;;;;;;8.47;7.93;;;16.00;99.90;;;;;;5138629;27;20491;-69
2023/05/10 08:30:56;;;;;;;8.80;8.33;;;16.00;99.90;;;;;;5137788;27;20954;-69
2023/05/10 08:33:23;;;;;;;10.53;9.90;;;15.90;99.90;;;;;;5147174;27;20447;-69
2023/05/10 08:35:50;;;;;;;20.83;14.33;;;15.70;99.90;;;;;;5140327;27;20557;-70
2023/05/10 08:38:19;;;;;;;11.90;11.00;;;15.80;99.90;;;;;;5136412;27;20895;-69
2023/05/10 08:40:50;;;;;;;9.67;9.23;;;15.70;99.90;;;;;;5132965;27;20534;-69
2023/05/10 08:43:17;;;;;;;11.53;10.37;;;15.70;99.90;;;;;;5133700;27;20470;-70
2023/05/10 08:45:46;;;;;;;13.10;9.60;;;15.70;99.90;;;;;;5143216;27;20849;-67
2023/05/10 08:48:14;;;;;;;16.93;12.70;;;15.60;99.90;;;;;;5140492;27;20492;-70
2023/05/10 08:50:42;;;;;;;11.33;10.53;;;15.50;99.90;;;;;;5135216;27;20463;-68
2023/05/10 08:53:11;;;;;;;13.60;12.37;;;15.70;99.90;;;;;;5135222;27;20455;-67
2023/05/10 08:55:42;;;;;;;17.90;16.30;;;15.90;99.90;;;;;;5146085;27;20497;-69
2023/05/10 08:58:10;;;;;;;11.70;11.10;;;15.90;99.90;;;;;;5142051;27;20465;-69
2023/05/10 09:00:37;;;;;;;14.57;13.33;;;16.10;99.90;;;;;;5139944;27;20867;-69
2023/05/10 09:03:06;;;;;;;15.97;12.63;;;16.10;99.90;;;;;;5139064;27;20501;-69
2023/05/10 09:05:33;;;;;;;12.43;11.50;;;16.10;99.90;;;;;;5143133;27;20451;-69
2023/05/10 09:08:01;;;;;;;16.90;15.37;;;16.50;99.90;;;;;;5137853;27;20464;-69
2023/05/10 09:10:29;;;;;;;11.67;11.00;;;16.40;99.90;;;;;;5136749;27;20476;-67
2023/05/10 09:12:59;;;;;;;14.07;12.73;;;16.60;99.90;;;;;;5130235;27;21352;-68
2023/05/10 09:15:25;;;;;;;13.57;12.73;;;16.80;99.90;;;;;;5136425;27;20552;-68
2023/05/10 09:17:52;;;;;;;19.87;17.50;;;16.80;99.90;;;;;;5144533;27;20475;-70
2023/05/10 09:20:19;;;;;;;16.80;15.17;;;17.00;99.90;;;;;;5136066;27;20459;-70
2023/05/10 09:22:46;;;;;;;15.53;14.23;;;16.70;99.90;;;;;;5143088;27;20467;-69
2023/05/10 09:25:14;;;;;;;20.00;18.00;;;16.50;99.90;;;;;;5138887;27;20467;-69
2023/05/10 09:27:42;;;;;;;15.83;14.50;;;16.50;99.90;;;;;;5147372;27;20464;-69
2023/05/10 09:30:11;;;;;;;13.90;13.00;;;16.70;99.90;;;;;;5136524;27;20489;-68
2023/05/10 09:32:39;;;;;;;16.50;14.47;;;16.60;99.90;;;;;;5141675;27;20459;-69
2023/05/10 09:35:11;;;;;;;13.97;12.97;;;16.70;99.90;;;;;;5130085;27;20543;-69
2023/05/10 09:37:42;;;;;;;15.03;13.93;;;16.80;99.90;;;;;;5135071;27;20451;-70
2023/05/10 09:40:12;;;;;;;17.13;15.70;;;16.90;99.90;;;;;;5134179;27;20502;-68
2023/05/10 09:42:39;;;;;;;15.83;14.87;;;16.60;99.90;;;;;;5135597;27;20460;-68
2023/05/10 09:45:07;;;;;;;15.87;14.87;;;16.80;99.90;;;;;;5140030;27;20494;-68
2023/05/10 09:47:37;;;;;;;15.40;14.27;;;16.80;99.90;;;;;;5136943;27;20463;-69
2023/05/10 09:50:05;;;;;;;31.17;13.30;;;16.90;99.90;;;;;;5132973;27;20494;-69
2023/05/10 09:52:46;;;;;;;16.70;15.47;;;17.00;99.90;;;;;;5134699;27;20512;-69
2023/05/10 09:55:14;;;;;;;16.77;15.40;;;17.30;99.90;;;;;;5136410;27;20451;-68
2023/05/10 09:57:41;;;;;;;16.67;15.60;;;17.70;99.90;;;;;;5134769;27;21002;-69
2023/05/10 10:00:09;;;;;;;16.37;15.07;;;17.30;99.90;;;;;;5135652;27;20457;-68
2023/05/10 10:02:39;;;;;;;15.90;14.77;;;17.10;99.90;;;;;;5137944;27;20985;-69
2023/05/10 10:05:07;;;;;;;14.90;14.03;;;17.10;99.90;;;;;;5138189;27;20463;-68
2023/05/10 10:07:36;;;;;;;19.17;14.27;;;17.20;99.90;;;;;;5137298;27;20459;-69
2023/05/10 10:10:04;;;;;;;15.63;14.60;;;17.60;99.90;;;;;;5144129;27;20484;-68
2023/05/10 10:12:31;;;;;;;14.00;13.30;;;17.40;99.90;;;;;;5137814;27;20469;-68
2023/05/10 10:15:01;;;;;;;17.87;16.63;;;17.30;99.90;;;;;;5136529;27;20457;-68
2023/05/10 10:17:29;;;;;;;16.30;14.97;;;17.20;99.90;;;;;;5137728;27;20833;-69
2023/05/10 10:19:59;;;;;;;14.70;13.90;;;17.40;99.90;;;;;;5133038;27;20538;-69
2023/05/10 10:22:26;;;;;;;15.80;14.77;;;17.20;99.90;;;;;;5140036;27;20455;-69
2023/05/10 10:24:53;;;;;;;14.33;13.67;;;16.90;99.90;;;;;;5142515;27;20464;-69
2023/05/10 10:27:27;;;;;;;17.30;15.83;;;17.20;99.90;;;;;;5133306;27;20633;-69
2023/05/10 10:30:04;;;;;;;16.50;15.30;;;17.20;99.90;;;;;;5138207;27;20902;-67
2023/05/10 10:32:43;;;;;;;14.23;13.43;;;17.10;99.90;;;;;;5140281;27;20455;-68
2023/05/10 10:35:11;;;;;;;14.83;14.03;;;17.10;99.90;;;;;;5147909;27;20990;-69
2023/05/10 10:37:46;;;;;;;14.43;13.73;;;16.70;99.90;;;;;;5142345;27;21157;-68
2023/05/10 10:40:24;;;;;;;17.03;15.83;;;16.90;99.90;;;;;;5141750;27;20456;-67
2023/05/10 10:42:51;;;;;;;15.33;14.30;;;16.90;99.90;;;;;;5142893;27;20535;-67
2023/05/10 10:45:18;;;;;;;15.23;14.33;;;16.80;99.90;;;;;;5134044;27;20455;-68
2023/05/10 10:47:46;;;;;;;15.93;14.93;;;16.90;99.90;;;;;;5137659;27;20825;-68
2023/05/10 10:50:16;;;;;;;18.87;17.30;;;17.20;99.90;;;;;;5141114;27;20552;-68
2023/05/10 10:52:43;;;;;;;14.20;13.50;;;17.50;99.90;;;;;;5130808;27;20448;-68
2023/05/10 10:55:13;;;;;;;16.50;15.40;;;17.80;99.90;;;;;;5134123;27;20474;-69
2023/05/10 10:57:48;;;;;;;15.80;14.80;;;17.90;99.90;;;;;;5139105;27;20464;-67
2023/05/10 11:00:30;;;;;;;16.37;15.17;;;17.80;99.90;;;;;;5136642;27;20979;-69
2023/05/10 11:02:59;;;;;;;13.73;13.13;;;17.60;99.90;;;;;;5132248;27;20555;-68
2023/05/10 11:05:36;;;;;;;14.90;14.10;;;17.50;99.90;;;;;;5142043;27;20995;-69
2023/05/10 11:08:13;;;;;;;15.27;14.23;;;17.20;99.90;;;;;;5135710;27;20459;-68
2023/05/10 11:10:41;;;;;;;14.77;13.67;;;16.70;99.90;;;;;;5136523;27;21009;-68
2023/05/10 11:13:10;;;;;;;12.07;11.57;;;16.70;99.90;;;;;;5137565;27;21074;-68
2023/05/10 11:15:38;;;;;;;14.13;13.23;;;16.60;99.90;;;;;;5136830;27;20829;-68
2023/05/10 11:18:19;;;;;;;13.23;12.63;;;16.80;99.90;;;;;;5144697;27;20487;-69
2023/05/10 11:20:51;;;;;;;16.37;15.27;;;16.90;99.90;;;;;;5133512;27;20463;-68
2023/05/10 11:23:20;;;;;;;15.97;15.00;;;17.10;99.90;;;;;;5137143;27;20448;-70
2023/05/10 11:25:49;;;;;;;15.73;14.53;;;16.90;99.90;;;;;;5137590;27;20456;-67
2023/05/10 11:28:18;;;;;;;13.73;13.07;;;16.70;99.90;;;;;;5129019;27;20461;-67
2023/05/10 11:30:45;;;;;;;13.37;12.60;;;16.80;99.90;;;;;;5133662;27;20483;-67
2023/05/10 11:33:16;;;;;;;15.00;14.10;;;17.10;99.90;;;;;;5142661;27;20451;-68
2023/05/10 11:35:43;;;;;;;14.30;13.13;;;17.20;99.90;;;;;;5147383;27;20455;-67
2023/05/10 11:38:13;;;;;;;13.23;12.63;;;17.30;99.90;;;;;;5135491;27;20493;-68
2023/05/10 11:40:41;;;;;;;12.17;11.57;;;17.40;99.90;;;;;;5140501;27;20463;-68
2023/05/10 11:43:10;;;;;;;15.00;14.20;;;17.70;99.90;;;;;;5139675;27;20478;-68
2023/05/10 11:45:37;;;;;;;14.40;13.70;;;17.90;99.90;;;;;;5140302;27;20461;-66
2023/05/10 11:48:05;;;;;;;14.80;13.90;;;18.30;99.90;;;;;;5141252;27;20455;-68
2023/05/10 11:50:32;;;;;;;14.60;13.80;;;18.40;99.90;;;;;;5137767;27;20492;-68
2023/05/10 11:52:59;;;;;;;17.33;16.00;;;18.30;99.90;;;;;;5145828;27;20500;-68
2023/05/10 11:55:29;;;;;;;13.13;12.63;;;18.30;99.90;;;;;;5141118;27;20467;-69
2023/05/10 11:58:00;;;;;;;12.20;11.70;;;18.40;99.90;;;;;;5133632;27;20479;-69
2023/05/10 12:00:28;;;;;;;13.47;12.57;;;18.40;99.90;;;;;;5142468;27;20459;-68
2023/05/10 12:02:55;;;;;;;10.13;9.73;;;18.80;99.90;;;;;;5138070;27;20504;-67
2023/05/10 12:05:23;;;;;;;12.63;11.97;;;18.90;99.90;;;;;;5150315;27;20455;-67
2023/05/10 12:07:50;;;;;;;16.17;15.27;;;18.50;99.90;;;;;;5140434;27;20465;-67
2023/05/10 12:10:17;;;;;;;14.53;13.83;;;18.10;99.90;;;;;;5139850;27;20828;-67
2023/05/10 12:12:47;;;;;;;13.60;12.90;;;18.10;99.90;;;;;;5144508;27;20981;-67
2023/05/10 12:15:18;;;;;;;15.47;14.57;;;17.80;99.90;;;;;;5139920;27;20952;-68
2023/05/10 12:17:45;;;;;;;15.37;14.20;;;17.40;99.90;;;;;;5137206;27;20536;-67
2023/05/10 12:20:19;;;;;;;13.23;12.50;;;17.10;99.90;;;;;;5132771;27;20463;-67
2023/05/10 12:22:48;;;;;;;12.03;11.53;;;16.60;99.90;;;;;;5139665;27;20884;-67
2023/05/10 12:25:16;;;;;;;15.50;14.50;;;16.50;99.90;;;;;;5142792;27;20467;-66
2023/05/10 12:27:51;;;;;;;14.40;13.50;;;16.40;99.90;;;;;;5142134;27;20819;-66
2023/05/10 12:30:22;;;;;;;15.53;14.63;;;16.50;99.90;;;;;;5140523;27;20852;-66
2023/05/10 12:32:49;;;;;;;13.10;12.20;;;16.50;99.90;;;;;;5135095;27;20461;-66
2023/05/10 12:35:16;;;;;;;9.57;9.17;;;16.40;99.90;;;;;;5137505;27;20459;-67
2023/05/10 12:37:44;;;;;;;9.70;9.17;;;16.40;99.90;;;;;;5147526;27;20548;-67
2023/05/10 12:40:12;;;;;;;9.60;9.07;;;16.50;99.90;;;;;;5144548;27;21014;-65
2023/05/10 12:42:40;;;;;;;9.13;8.83;;;16.70;99.90;;;;;;5138926;27;20503;-67
2023/05/10 12:45:09;;;;;;;10.37;9.97;;;16.90;99.90;;;;;;5133794;27;20459;-67
2023/05/10 12:47:36;;;;;;;10.40;10.00;;;17.20;99.90;;;;;;5133551;27;20458;-67
2023/05/10 12:50:04;;;;;;;11.50;11.00;;;17.80;99.90;;;;;;5141430;27;20930;-68